Strona główna
METAR-TAF:

METAR-TAF

Lotnisko :

Lydd, Anglia

Szerokość geograficzna: 50-57N, Długość geograficzna: 000-56E, wysokość: 3 m

Aktualna obserwacja pogody

Raport powstał 28 minut temu, godzina 11:50 UTC
Wiatr 10 kt od wschód
Temperatura 10°C
Wilgotność 93%
Ciśnienie 1018 hPa
Widzialność 10 km lub więcej

METAR: EGMD 271150Z AUTO 09010KT 9999 FEW017/// SCT024/// 10/09 Q1018

czas: 12:18 (12:18 UTC)

Prognoza

Raport powstał 17 minut temu, godzina 12:01 UTC
Prognoza ważna od 27 godzina 12 UTC do 27 godzina 21 UTC
Wiatr 9 kt od wschód
Widzialność 10 km lub więcej
Rozproszone chmury na wysokości 1200 ft
Przerywane chmury na wysokości 1800 ft
Przejściowo
od 27 godzina 12 UTC do 27 godzina 21 UTC
Przerywane chmury na wysokości 1200 ft
Prawdopodobieństwo 30% :
Przejściowo
od 27 godzina 15 UTC do 27 godzina 19 UTC
Widzialność: 4000 m
Przerywane chmury na wysokości 800 ft
deszcz, mżawka

TAF: EGMD 271201Z 2712/2721 09009KT 9999 SCT012 BKN018 TEMPO 2712/2721 BKN012 PROB30 TEMPO 2715/2719 4000 RADZ BKN008

Obserwacja i prognoza pogody dla ponad 4000 lotnisk (raport METAR i TAF).

Dostępne stacje oznaczono żółtymi i czerwonymi punktami na mapie.

Najedź kursorem aby zobaczyć nazwę stacji.

Kliknij aby zobaczyć obserwacje i prognozy pogody.

Aby zmienić mapę: kliknij na zielony przycisk z czarnym krzyżykiem, aby powiększyć; na zielony przycisk z myślnikiem, aby pomniejszyć; na zielone strzałki, aby przejść do map sąsiednich.


METAR-TAF: